Time;durP1;ratioP1;P1;durP2;ratioP2;P2;SDS_P1;SDS_P2;PMS_P1;PMS_P2;Temp;Humidity;BMP_temperature;BMP_pressure;BME280_temperature;BME280_humidity;BME280_pressure;Samples;Min_cycle;Max_cycle;Signal;HPM_P1;HPM_P2
2023/12/10 00:01:30;1083284.00;3.61;1880.56;85172.00;0.28;147.97;;;;;11.80;1.00;;;;;;2280452;61;2099;-86
2023/12/10 00:03:57;515795.00;1.72;889.02;49553.00;0.17;86.41;;;;;11.90;1.00;;;;;;2280479;61;1008;-85
2023/12/10 00:06:24;993647.00;3.31;1721.22;70940.00;0.24;123.38;;;;;11.80;1.00;;;;;;2280328;61;1590;-86
2023/12/10 00:08:56;340470.00;1.13;587.48;0.00;0.00;0.62;;;;;11.80;1.00;;;;;;2280673;61;902;-87
2023/12/10 00:13:53;734721.00;2.45;1267.50;102829.00;0.34;178.45;;;;;11.70;1.00;;;;;;2288242;55;3614;-88
2023/12/10 00:16:20;385168.00;1.28;664.31;148.00;0.00;0.88;;;;;11.70;1.00;;;;;;2275672;61;1445;-88
2023/12/10 00:18:49;735652.00;2.45;1269.12;97301.00;0.32;168.91;;;;;11.60;1.00;;;;;;2272572;61;1043;-88
2023/12/10 00:26:21;972868.00;3.24;1684.48;0.00;0.00;0.62;;;;;11.30;1.00;;;;;;2015875;40;3409;-87
2023/12/10 00:28:53;982841.00;3.28;1702.10;63145.00;0.21;109.91;;;;;11.60;1.00;;;;;;2273147;55;3730;-89
2023/12/10 00:31:20;575588.00;1.92;992.09;0.00;0.00;0.62;;;;;11.70;1.00;;;;;;2264362;61;1021;-88
2023/12/10 00:36:18;793978.00;2.65;1370.62;125388.00;0.42;217.38;;;;;11.60;1.00;;;;;;2274440;61;1408;-85
2023/12/10 00:38:45;635102.00;2.12;1094.87;84739.00;0.28;147.22;;;;;11.40;1.00;;;;;;2272414;61;1269;-87
2023/12/10 00:41:13;814782.00;2.72;1406.92;89041.00;0.30;154.65;;;;;11.70;1.00;;;;;;2291399;40;3624;-87
2023/12/10 00:43:41;156147.00;0.52;270.40;0.00;0.00;0.62;;;;;11.80;1.00;;;;;;2276569;61;1030;-86
2023/12/10 00:46:08;114521.00;0.38;198.63;0.00;0.00;0.62;;;;;11.70;1.00;;;;;;2275830;61;1879;-87
2023/12/10 00:48:37;294082.00;0.98;507.75;0.00;0.00;0.62;;;;;11.40;1.00;;;;;;2272612;61;1060;-88
2023/12/10 00:51:04;382817.00;1.28;660.27;41160.00;0.14;71.90;;;;;11.60;1.00;;;;;;2272412;61;1535;-88
2023/12/10 00:53:33;396658.00;1.32;684.06;0.00;0.00;0.62;;;;;11.60;1.00;;;;;;2272480;61;1037;-87
2023/12/10 00:56:00;151630.00;0.51;262.62;0.00;0.00;0.62;;;;;11.50;1.00;;;;;;2272452;61;1407;-86
2023/12/10 00:58:27;84459.00;0.28;146.74;0.00;0.00;0.62;;;;;11.40;1.00;;;;;;2272464;61;969;-87
2023/12/10 01:00:54;252235.00;0.84;435.79;0.00;0.00;0.62;;;;;11.40;1.00;;;;;;2272426;61;2005;-88
2023/12/10 01:03:23;73555.00;0.25;127.90;0.00;0.00;0.62;;;;;11.40;1.00;;;;;;2272563;61;1265;-87
2023/12/10 01:05:53;154588.00;0.52;267.71;0.00;0.00;0.62;;;;;11.30;1.00;;;;;;2272365;61;1083;-87
2023/12/10 01:08:23;381183.00;1.27;657.46;0.00;0.00;0.62;;;;;11.20;1.00;;;;;;2272376;61;1181;-86
2023/12/10 01:10:55;229490.00;0.76;396.67;0.00;0.00;0.62;;;;;11.20;1.00;;;;;;2272386;61;1629;-89
2023/12/10 01:13:24;1176782.00;3.92;2048.30;78856.00;0.26;137.06;;;;;11.30;1.00;;;;;;2272411;61;1600;-87
2023/12/10 01:15:53;1315697.00;4.39;2300.86;153102.00;0.51;265.15;;;;;11.60;1.00;;;;;;2272509;61;1094;-86
2023/12/10 01:18:21;1636846.00;5.46;2903.37;122961.00;0.41;213.19;;;;;11.30;1.00;;;;;;2272298;61;1417;-86
2023/12/10 01:20:48;1539234.00;5.13;2717.17;100997.00;0.34;175.29;;;;;11.30;1.00;;;;;;2272409;61;1931;-87
2023/12/10 01:23:15;1743344.00;5.81;3109.96;155910.00;0.52;269.99;;;;;11.40;1.00;;;;;;2272461;61;1682;-87
2023/12/10 01:25:42;1622446.00;5.41;2875.71;184259.00;0.61;318.82;;;;;11.70;1.00;;;;;;2272483;61;1102;-87
2023/12/10 01:28:12;117823904.00;392.75;66257188.00;85899.00;0.29;149.23;;;;;11.60;1.00;;;;;;2272334;61;1283;-86
2023/12/10 01:30:39;680512.00;2.27;1173.46;0.00;0.00;0.62;;;;;11.50;1.00;;;;;;2272412;61;1594;-86
2023/12/10 01:33:06;691923.00;2.31;1193.23;33746.00;0.11;59.07;;;;;11.40;1.00;;;;;;2272444;61;1046;-85
2023/12/10 01:35:33;316765.00;1.06;546.74;0.00;0.00;0.62;;;;;11.70;1.00;;;;;;2272406;61;1477;-88
2023/12/10 01:38:03;434437.00;1.45;749.02;3102.00;0.01;6.00;;;;;11.70;1.00;;;;;;2272142;61;2090;-88
2023/12/10 01:40:30;2305328.00;7.68;4271.28;325323.00;1.08;561.45;;;;;11.60;1.00;;;;;;2271968;61;1931;-88
2023/12/10 01:42:57;1891901.00;6.31;3404.67;70594.00;0.24;122.79;;;;;11.50;1.00;;;;;;2272336;61;1724;-87
2023/12/10 01:45:26;1450015.00;4.83;2549.41;201985.00;0.67;349.34;;;;;11.20;1.00;;;;;;2272344;61;2223;-88
2023/12/10 01:47:56;622779.00;2.08;1073.57;96074.00;0.32;166.79;;;;;11.40;1.00;;;;;;2272279;61;1434;-88
2023/12/10 01:50:23;712349.00;2.37;1228.66;85949.00;0.29;149.31;;;;;11.60;1.00;;;;;;2272395;61;990;-87
2023/12/10 01:52:53;360811.00;1.20;622.44;31112.00;0.10;54.51;;;;;11.60;1.00;;;;;;2272313;61;1439;-87
2023/12/10 01:55:23;381660.00;1.27;658.28;27826.00;0.09;48.82;;;;;11.80;1.00;;;;;;2272373;61;915;-86
2023/12/10 01:57:50;170251.00;0.57;294.70;0.00;0.00;0.62;;;;;11.80;1.00;;;;;;2272272;61;1677;-86
2023/12/10 02:00:19;218476.00;0.73;377.72;0.00;0.00;0.62;;;;;11.50;1.00;;;;;;2272263;61;1997;-86
2023/12/10 02:02:48;152414.00;0.51;263.97;0.00;0.00;0.62;;;;;11.30;1.00;;;;;;2272112;61;1617;-86
2023/12/10 02:05:15;203815.00;0.68;352.49;0.00;0.00;0.62;;;;;11.10;1.00;;;;;;2272250;61;1823;-88
2023/12/10 02:07:43;689503.00;2.30;1189.04;70925.00;0.24;123.36;;;;;11.10;1.00;;;;;;2272272;61;2198;-86
2023/12/10 02:10:10;1397999.00;4.66;2452.61;126283.00;0.42;218.92;;;;;10.90;1.00;;;;;;2272281;61;1114;-86
2023/12/10 02:12:38;1215755.00;4.05;2118.73;179565.00;0.60;310.74;;;;;10.90;1.00;;;;;;2272346;61;1110;-86
2023/12/10 02:15:15;118334872.00;394.45;67123736.00;101964.00;0.34;176.96;;;;;10.80;1.00;;;;;;2272320;61;1021;-87
2023/12/10 02:17:43;723621.00;2.41;1248.22;130423.00;0.43;226.06;;;;;10.70;1.00;;;;;;2272402;61;1288;-86
2023/12/10 02:20:13;281292.00;0.94;485.76;0.00;0.00;0.62;;;;;10.70;1.00;;;;;;2272193;61;2001;-86
2023/12/10 02:22:48;658454.00;2.19;1135.26;106185.00;0.35;184.25;;;;;10.70;1.00;;;;;;2272230;61;882;-88
2023/12/10 02:25:20;410220.00;1.37;707.38;79937.00;0.27;138.93;;;;;10.70;1.00;;;;;;2272235;61;1115;-87
2023/12/10 02:27:49;66611.00;0.22;115.90;0.00;0.00;0.62;;;;;10.80;1.00;;;;;;2272255;61;1399;-88
2023/12/10 02:30:18;537136.00;1.79;925.79;37350.00;0.12;65.30;;;;;10.70;1.00;;;;;;2272223;61;1283;-87
2023/12/10 02:32:45;379046.00;1.26;653.79;22389.00;0.07;39.41;;;;;10.70;1.00;;;;;;2284187;40;3691;-88
2023/12/10 02:40:12;1588898.00;5.30;2811.54;139639.00;0.47;241.95;;;;;11.40;1.00;;;;;;2273874;61;1952;-86
2023/12/10 02:42:39;1583147.00;5.28;2800.57;105176.00;0.35;182.51;;;;;11.10;1.00;;;;;;2271926;61;1543;-87
2023/12/10 02:45:08;2088279.00;6.96;3807.19;237739.00;0.79;410.86;;;;;11.00;1.00;;;;;;2272221;61;1128;-87
2023/12/10 02:47:37;1398561.00;4.66;2453.66;123583.00;0.41;214.26;;;;;10.90;1.00;;;;;;2269369;61;1257;-87
2023/12/10 02:50:05;1743660.00;5.81;3110.57;115026.00;0.38;199.50;;;;;10.70;1.00;;;;;;2267984;61;1549;-86
2023/12/10 02:52:33;360377.00;1.20;621.70;83775.00;0.28;145.56;;;;;10.50;1.00;;;;;;2268140;61;965;-87
2023/12/10 02:55:00;402791.00;1.34;694.60;89726.00;0.30;155.83;;;;;10.40;1.00;;;;;;2268057;61;1572;-88
2023/12/10 02:57:28;581126.00;1.94;1001.64;24726.00;0.08;43.45;;;;;10.40;1.00;;;;;;2268168;61;1343;-89
2023/12/10 02:59:57;553735.00;1.85;954.40;0.00;0.00;0.62;;;;;10.40;1.00;;;;;;2268179;61;929;-87
2023/12/10 03:02:27;83107.00;0.28;144.40;0.00;0.00;0.62;;;;;10.30;1.00;;;;;;2268062;61;2196;-88
2023/12/10 03:05:02;398075.00;1.33;686.50;30998.00;0.10;54.31;;;;;10.40;1.00;;;;;;2268062;61;1629;-87
2023/12/10 03:07:29;208164.00;0.69;359.98;0.00;0.00;0.62;;;;;10.60;1.00;;;;;;2265982;61;1799;-87
2023/12/10 03:09:56;308079.00;1.03;531.81;0.00;0.00;0.62;;;;;10.50;1.00;;;;;;2264114;61;983;-86
2023/12/10 03:12:23;471149.00;1.57;812.17;0.00;0.00;0.62;;;;;10.50;1.00;;;;;;2264070;61;1432;-86
2023/12/10 03:14:50;324036.00;1.08;559.24;21998.00;0.07;38.73;;;;;10.30;1.00;;;;;;2264041;61;1439;-88
2023/12/10 03:17:17;124479.00;0.41;215.81;0.00;0.00;0.62;;;;;10.30;1.00;;;;;;2264080;61;1361;-86
2023/12/10 03:19:46;235941.00;0.79;407.77;0.00;0.00;0.62;;;;;10.30;1.00;;;;;;2264102;61;1123;-86
2023/12/10 03:22:16;62021.00;0.21;107.97;0.00;0.00;0.62;;;;;10.50;1.00;;;;;;2264081;61;2013;-85
2023/12/10 03:24:45;360314.00;1.20;621.59;19648.00;0.07;34.66;;;;;10.30;1.00;;;;;;2264118;61;1024;-87
2023/12/10 03:27:14;158742.00;0.53;274.87;0.00;0.00;0.62;;;;;10.10;1.00;;;;;;2263990;61;1574;-86
2023/12/10 03:29:43;266267.00;0.89;459.93;0.00;0.00;0.62;;;;;10.20;1.00;;;;;;2264050;61;1973;-87
2023/12/10 03:32:10;75994.00;0.25;132.12;0.00;0.00;0.62;;;;;10.20;1.00;;;;;;2264068;61;930;-88
2023/12/10 03:34:37;497210.00;1.66;857.02;41521.00;0.14;72.52;;;;;10.40;1.00;;;;;;2263995;61;1604;-87
2023/12/10 03:37:06;1503852.00;5.01;2650.37;69096.00;0.23;120.20;;;;;10.50;1.00;;;;;;2264044;61;1610;-86
2023/12/10 03:39:33;562542.00;1.88;969.58;47076.00;0.16;82.13;;;;;10.70;1.00;;;;;;2263972;61;1454;-86
2023/12/10 03:42:00;394957.00;1.32;681.14;0.00;0.00;0.62;;;;;10.80;1.00;;;;;;2263858;61;1993;-88
2023/12/10 03:44:26;596482.00;1.99;1028.15;63571.00;0.21;110.65;;;;;10.70;1.00;;;;;;2263895;61;1443;-88
2023/12/10 03:46:53;397882.00;1.33;686.16;39893.00;0.13;69.70;;;;;10.60;1.00;;;;;;2264052;61;1272;-86
2023/12/10 03:49:20;278135.00;0.93;480.33;39738.00;0.13;69.44;;;;;10.50;1.00;;;;;;2263965;61;1465;-87
2023/12/10 03:51:47;297927.00;0.99;514.36;0.00;0.00;0.62;;;;;10.40;1.00;;;;;;2263971;61;1492;-88
2023/12/10 03:54:16;515217.00;1.72;888.03;84573.00;0.28;146.94;;;;;10.50;1.00;;;;;;2264037;61;992;-88
2023/12/10 03:56:43;299518.00;1.00;517.09;35572.00;0.12;62.23;;;;;10.50;1.00;;;;;;2263672;61;1555;-86
2023/12/10 03:59:10;2201297.00;7.34;4046.18;223253.00;0.74;385.94;;;;;10.40;1.00;;;;;;2267455;61;1574;-86
2023/12/10 04:01:37;1372221.00;4.57;2404.90;97328.00;0.32;168.96;;;;;10.40;1.00;;;;;;2268299;61;1996;-88
2023/12/10 04:04:04;563647.00;1.88;971.49;105703.00;0.35;183.41;;;;;10.30;1.00;;;;;;2268605;61;2161;-86
2023/12/10 04:06:31;810727.00;2.70;1399.84;153254.00;0.51;265.42;;;;;10.40;1.00;;;;;;2268647;61;1364;-86
2023/12/10 04:08:58;117551208.00;391.84;65797804.00;148286.00;0.49;256.85;;;;;10.30;1.00;;;;;;2268677;61;1432;-88
2023/12/10 04:11:27;458787.00;1.53;790.90;9035.00;0.03;16.28;;;;;10.10;1.00;;;;;;2268744;61;1139;-87
2023/12/10 04:13:54;539014.00;1.80;929.02;32284.00;0.11;56.54;;;;;10.00;1.00;;;;;;2268682;61;1019;-88
2023/12/10 04:16:29;414264.00;1.38;714.33;0.00;0.00;0.62;;;;;10.00;1.00;;;;;;2268630;61;1360;-88
2023/12/10 04:18:58;227515.00;0.76;393.27;14415.00;0.05;25.60;;;;;10.10;1.00;;;;;;2268662;61;1179;-86
2023/12/10 04:21:25;52492.00;0.17;91.50;0.00;0.00;0.62;;;;;10.20;1.00;;;;;;2268666;61;2008;-88
2023/12/10 04:23:52;166654.00;0.56;288.50;0.00;0.00;0.62;;;;;10.20;1.00;;;;;;2268539;61;1466;-86
2023/12/10 04:26:19;242727.00;0.81;419.44;0.00;0.00;0.62;;;;;10.40;1.00;;;;;;2268483;61;1774;-87
2023/12/10 04:28:51;191427.00;0.64;331.17;13836.00;0.05;24.59;;;;;10.40;1.00;;;;;;2268630;61;1645;-85
2023/12/10 04:31:18;311328.00;1.04;537.39;26420.00;0.09;46.39;;;;;10.40;1.00;;;;;;2268527;61;1514;-86
2023/12/10 04:33:45;318026.00;1.06;548.91;17718.00;0.06;31.32;;;;;10.60;1.00;;;;;;2268535;61;1528;-88
2023/12/10 04:36:15;192947.00;0.64;333.78;0.00;0.00;0.62;;;;;10.70;1.00;;;;;;2268509;61;1448;-87
2023/12/10 04:38:42;429008.00;1.43;739.68;72538.00;0.24;126.15;;;;;10.60;1.00;;;;;;2268528;61;1045;-86
2023/12/10 04:41:12;638277.00;2.13;1100.36;39779.00;0.13;69.51;;;;;10.60;1.00;;;;;;2268534;61;2011;-86
2023/12/10 04:43:39;1006013.00;3.35;1743.12;64530.00;0.22;112.31;;;;;10.40;1.00;;;;;;2268409;61;1411;-86
2023/12/10 04:46:08;431275.00;1.44;743.58;0.00;0.00;0.62;;;;;10.50;1.00;;;;;;2268447;61;1266;-86
2023/12/10 04:48:35;574726.00;1.92;990.60;31792.00;0.11;55.68;;;;;10.50;1.00;;;;;;2268575;61;1031;-86
2023/12/10 04:51:02;425403.00;1.42;733.48;46830.00;0.16;81.70;;;;;10.40;1.00;;;;;;2268535;61;1562;-88
2023/12/10 04:53:32;401677.00;1.34;692.69;39443.00;0.13;68.92;;;;;10.70;1.00;;;;;;2268465;61;1456;-88
2023/12/10 04:55:59;293195.00;0.98;506.22;27555.00;0.09;48.35;;;;;10.80;1.00;;;;;;2268521;61;1411;-87
2023/12/10 04:58:26;564864.00;1.88;973.59;53125.00;0.18;92.59;;;;;10.80;1.00;;;;;;2268423;61;934;-87
2023/12/10 05:00:54;274808.00;0.92;474.61;0.00;0.00;0.62;;;;;10.80;1.00;;;;;;2268546;61;2002;-87
2023/12/10 05:03:24;117142.00;0.39;203.15;0.00;0.00;0.62;;;;;10.80;1.00;;;;;;2268458;61;1594;-87
2023/12/10 05:05:51;997194.00;3.32;1727.50;119938.00;0.40;207.98;;;;;11.00;1.00;;;;;;2268374;61;1586;-86
2023/12/10 05:08:18;1609089.00;5.36;2850.12;97233.00;0.32;168.80;;;;;11.00;1.00;;;;;;2268464;61;1274;-86
2023/12/10 05:10:45;722738.00;2.41;1246.69;122593.00;0.41;212.56;;;;;11.10;1.00;;;;;;2268431;61;962;-86
2023/12/10 05:13:12;369364.00;1.23;637.14;0.00;0.00;0.62;;;;;11.30;1.00;;;;;;2268276;61;923;-87
2023/12/10 05:15:41;127884.00;0.43;221.68;0.00;0.00;0.62;;;;;11.20;1.00;;;;;;2268423;61;907;-87
2023/12/10 05:18:08;449496.00;1.50;774.92;25987.00;0.09;45.64;;;;;11.00;1.00;;;;;;2268442;61;1338;-85
2023/12/10 05:20:37;212278.00;0.71;367.06;0.00;0.00;0.62;;;;;10.80;1.00;;;;;;2268302;61;1410;-86
2023/12/10 05:23:04;271586.00;0.91;469.07;11627.00;0.04;20.77;;;;;10.60;1.00;;;;;;2268389;61;1922;-86
2023/12/10 05:28:00;1190616.00;3.97;2073.26;142706.00;0.48;247.24;;;;;10.70;1.00;;;;;;2270349;61;1402;-87
2023/12/10 05:30:27;587204.00;1.96;1012.13;94497.00;0.31;164.07;;;;;10.70;1.00;;;;;;2268400;61;1562;-88
2023/12/10 05:32:57;448587.00;1.50;773.35;0.00;0.00;0.62;;;;;10.70;1.00;;;;;;2268454;61;1025;-86
2023/12/10 05:35:24;473472.00;1.58;816.16;0.00;0.00;0.62;;;;;10.80;1.00;;;;;;2265094;61;1610;-86
2023/12/10 05:37:56;165799.00;0.55;287.03;19267.00;0.06;34.00;;;;;11.00;1.00;;;;;;2264208;61;1297;-85
2023/12/10 05:40:27;256923.00;0.86;443.86;0.00;0.00;0.62;;;;;10.80;1.00;;;;;;2264293;61;1565;-85
2023/12/10 05:42:55;1337707.00;4.46;2341.28;54408.00;0.18;94.81;;;;;10.70;1.00;;;;;;2264305;61;1995;-88
2023/12/10 05:45:23;1474657.00;4.92;2595.52;228830.00;0.76;395.54;;;;;10.40;1.00;;;;;;2264220;61;1471;-86
2023/12/10 05:47:51;632001.00;2.11;1089.51;82940.00;0.28;144.12;;;;;10.30;1.00;;;;;;2264239;61;1321;-86
2023/12/10 05:50:18;581513.00;1.94;1002.31;37801.00;0.13;66.08;;;;;10.30;1.00;;;;;;2264271;61;1568;-88
2023/12/10 05:52:48;192149.00;0.64;332.41;0.00;0.00;0.62;;;;;10.10;1.00;;;;;;2264275;61;1414;-87
2023/12/10 05:55:17;142777.00;0.48;247.36;0.00;0.00;0.62;;;;;10.60;1.00;;;;;;2264218;61;1249;-88
2023/12/10 05:57:47;315418.00;1.05;544.42;0.00;0.00;0.62;;;;;10.80;1.00;;;;;;2264141;61;1343;-87
2023/12/10 06:00:14;1070291.00;3.57;1857.37;21882.00;0.07;38.53;;;;;10.90;1.00;;;;;;2264312;61;1047;-87
2023/12/10 06:02:41;2035158.00;6.78;3696.77;106948.00;0.36;185.56;;;;;10.90;1.00;;;;;;2286086;56;3615;-87
2023/12/10 06:05:09;1153968.00;3.85;2007.21;87908.00;0.29;152.70;;;;;10.80;1.00;;;;;;2272302;61;1053;-86
2023/12/10 06:07:35;421224.00;1.40;726.30;59493.00;0.20;103.60;;;;;10.50;1.00;;;;;;2266896;61;1876;-87
2023/12/10 06:10:03;167875.00;0.56;290.61;0.00;0.00;0.62;;;;;10.60;1.00;;;;;;2297687;41;3616;-87
2023/12/10 06:12:32;468704.00;1.56;807.96;0.00;0.00;0.62;;;;;10.60;1.00;;;;;;2272304;61;1594;-85
2023/12/10 06:15:01;287260.00;0.96;496.02;0.00;0.00;0.62;;;;;10.90;1.00;;;;;;2275515;55;3731;-87
2023/12/10 06:17:29;344726.00;1.15;594.80;3719.00;0.01;7.07;;;;;10.70;1.00;;;;;;2269611;61;1657;-87
2023/12/10 06:19:56;1204455.00;4.01;2098.28;44412.00;0.15;77.52;;;;;10.70;1.00;;;;;;2268224;61;1051;-86
2023/12/10 06:22:23;612488.00;2.04;1055.79;91762.00;0.31;159.35;;;;;10.50;1.00;;;;;;2268258;61;1996;-86
2023/12/10 06:24:54;285833.00;0.95;493.57;0.00;0.00;0.62;;;;;10.40;1.00;;;;;;2268248;61;1217;-87
2023/12/10 06:27:21;134745.00;0.45;233.51;0.00;0.00;0.62;;;;;10.50;1.00;;;;;;2268186;61;1349;-87
2023/12/10 06:29:50;229539.00;0.77;396.76;0.00;0.00;0.62;;;;;10.50;1.00;;;;;;2268197;61;1042;-87
2023/12/10 06:32:20;363778.00;1.21;627.54;12271.00;0.04;21.88;;;;;10.40;1.00;;;;;;2268074;61;1543;-86
2023/12/10 06:34:48;1512554.00;5.04;2666.76;74021.00;0.25;128.71;;;;;10.50;1.00;;;;;;2268231;61;2216;-88
2023/12/10 06:37:15;1886732.00;6.29;3394.28;195750.00;0.65;338.61;;;;;10.40;1.00;;;;;;2268070;61;1569;-87
2023/12/10 06:39:42;317687.00;1.06;548.32;0.00;0.00;0.62;;;;;10.60;1.00;;;;;;2268223;61;1079;-84
2023/12/10 06:42:10;299421.00;1.00;516.92;0.00;0.00;0.62;;;;;10.80;1.00;;;;;;2268072;61;1924;-87
2023/12/10 06:47:08;301591.00;1.01;520.65;0.00;0.00;0.62;;;;;10.50;1.00;;;;;;2271613;61;1443;-86
2023/12/10 06:49:36;287743.00;0.96;496.85;14603.00;0.05;25.92;;;;;10.70;1.00;;;;;;2267875;61;1108;-88
2023/12/10 06:52:05;114752.00;0.38;199.03;0.00;0.00;0.62;;;;;10.90;1.00;;;;;;2267694;61;1588;-85
2023/12/10 06:54:32;228960.00;0.76;395.76;0.00;0.00;0.62;;;;;10.90;1.00;;;;;;2268097;61;1606;-86
2023/12/10 06:56:59;1129241.00;3.76;1962.80;104099.00;0.35;180.65;;;;;10.60;1.00;;;;;;2267780;61;1506;-86
2023/12/10 06:59:26;1843557.00;6.15;3307.89;145018.00;0.48;251.22;;;;;10.50;1.00;;;;;;2268065;61;1400;-87
2023/12/10 07:01:53;443384.00;1.48;764.40;128526.00;0.43;222.79;;;;;10.40;1.00;;;;;;2268074;61;2002;-87
2023/12/10 07:04:22;101282.00;0.34;175.78;0.00;0.00;0.62;;;;;10.70;1.00;;;;;;2268188;61;1037;-87
2023/12/10 07:06:49;270218.00;0.90;466.72;0.00;0.00;0.62;;;;;10.80;1.00;;;;;;2268050;61;1345;-87
2023/12/10 07:09:18;256793.00;0.86;443.63;0.00;0.00;0.62;;;;;11.00;1.00;;;;;;2268043;61;1487;-87
2023/12/10 07:11:48;190490.00;0.63;329.55;0.00;0.00;0.62;;;;;10.80;1.00;;;;;;2268109;61;1661;-84
2023/12/10 07:14:15;995262.00;3.32;1724.08;110968.00;0.37;192.50;;;;;10.80;1.00;;;;;;2268122;61;941;-87
2023/12/10 07:16:42;2302107.00;7.67;4264.23;230937.00;0.77;399.16;;;;;10.70;1.00;;;;;;2268080;61;2377;-84
2023/12/10 07:19:09;1374646.00;4.58;2409.38;120486.00;0.40;208.92;;;;;10.70;1.00;;;;;;2268147;61;1132;-86
2023/12/10 07:21:39;118401664.00;394.67;67237552.00;128477.00;0.43;222.70;;;;;10.60;1.00;;;;;;2267995;61;1914;-87
2023/12/10 07:24:06;649912.00;2.17;1120.48;113133.00;0.38;196.24;;;;;10.50;1.00;;;;;;2268128;61;1041;-84
2023/12/10 07:26:34;180753.00;0.60;312.79;95185.00;0.32;165.26;;;;;10.40;1.00;;;;;;2268070;61;1382;-90
2023/12/10 07:29:03;371691.00;1.24;641.14;0.00;0.00;0.62;;;;;10.30;1.00;;;;;;2268121;61;883;-87
2023/12/10 07:31:31;655735.00;2.19;1130.56;30794.00;0.10;53.96;;;;;10.30;1.00;;;;;;2268033;61;1073;-88
2023/12/10 07:34:01;421595.00;1.41;726.93;9346.00;0.03;16.82;;;;;10.50;1.00;;;;;;2267989;61;1009;-86
2023/12/10 07:36:28;430447.00;1.43;742.15;16157.00;0.05;28.61;;;;;10.60;1.00;;;;;;2268271;61;1449;-88
2023/12/10 07:38:57;311501.00;1.04;537.69;0.00;0.00;0.62;;;;;10.70;1.00;;;;;;2277357;40;3589;-86
2023/12/10 07:41:24;1280523.00;4.27;2236.50;74238.00;0.25;129.08;;;;;10.90;1.00;;;;;;2268699;61;1443;-87
2023/12/10 07:43:51;2298872.00;7.66;4257.16;96981.00;0.32;168.36;;;;;10.80;1.00;;;;;;2268812;61;1940;-87
2023/12/10 07:46:18;1147779.00;3.83;1996.08;190887.00;0.64;330.24;;;;;10.80;1.00;;;;;;2268173;61;1278;-85
2023/12/10 07:48:47;307147.00;1.02;530.21;0.00;0.00;0.62;;;;;10.70;1.00;;;;;;2264648;61;1021;-85
2023/12/10 07:51:14;119310936.00;397.70;68799976.00;118855168.00;396.18;68013824.00;;;;;10.60;1.00;;;;;;2264474;61;1605;-86
2023/12/10 07:53:42;646755.00;2.16;1115.02;34831.00;0.12;60.94;;;;;10.60;1.00;;;;;;2264622;61;982;-85
2023/12/10 07:56:14;459965.00;1.53;792.92;46408.00;0.15;80.97;;;;;11.00;1.00;;;;;;2264396;61;1309;-86
2023/12/10 07:58:44;751962.00;2.51;1297.47;49744.00;0.17;86.74;;;;;11.00;1.00;;;;;;2264450;61;1537;-86
2023/12/10 08:01:11;2258125.00;7.53;4168.51;191138.00;0.64;330.67;;;;;11.10;1.00;;;;;;2264637;61;878;-86
2023/12/10 08:03:38;1155325.00;3.85;2009.65;135189.00;0.45;234.28;;;;;11.10;1.00;;;;;;2265855;61;2004;-86
2023/12/10 08:06:08;819637.00;2.73;1415.39;130787.00;0.44;226.69;;;;;11.10;1.00;;;;;;2268638;61;1561;-85
2023/12/10 08:08:35;731021.00;2.44;1261.08;28132.00;0.09;49.35;;;;;11.00;1.00;;;;;;2268139;61;1908;-85
2023/12/10 08:11:03;430665.00;1.44;742.53;0.00;0.00;0.62;;;;;10.90;1.00;;;;;;2268526;61;1383;-85
2023/12/10 08:13:32;778647.00;2.60;1343.91;56621.00;0.19;98.64;;;;;10.80;1.00;;;;;;2268584;61;1602;-87
2023/12/10 08:15:59;2181928.00;7.27;4004.82;261960.00;0.87;452.52;;;;;10.60;1.00;;;;;;2268659;61;1107;-86
2023/12/10 08:18:26;550324.00;1.83;948.52;128857.00;0.43;223.36;;;;;10.60;1.00;;;;;;2268503;61;1675;-86
2023/12/10 08:20:53;259624.00;0.87;448.50;0.00;0.00;0.62;;;;;10.80;1.00;;;;;;2268561;61;1625;-85
2023/12/10 08:23:23;293911.00;0.98;507.45;0.00;0.00;0.62;;;;;11.00;1.00;;;;;;2268496;61;1919;-86
2023/12/10 08:25:50;234267.00;0.78;404.89;33671.00;0.11;58.94;;;;;11.00;1.00;;;;;;2268644;61;1004;-85
2023/12/10 08:28:17;2785119.00;9.28;5380.80;412917.00;1.38;712.01;;;;;10.90;1.00;;;;;;2268316;61;1828;-85
2023/12/10 08:30:45;705901.00;2.35;1217.47;129224.00;0.43;223.99;;;;;10.60;1.00;;;;;;2268558;61;1858;-87
2023/12/10 08:33:12;717545.00;2.39;1237.68;142639.00;0.48;247.12;;;;;10.60;1.00;;;;;;2268548;61;1166;-86
2023/12/10 08:35:39;588667.00;1.96;1014.66;84620.00;0.28;147.02;;;;;10.80;1.00;;;;;;2268542;61;1018;-87
2023/12/10 08:38:08;328992.00;1.10;567.75;0.00;0.00;0.62;;;;;11.00;1.00;;;;;;2268456;61;1390;-88
2023/12/10 08:40:35;630148.00;2.10;1086.31;57677.00;0.19;100.46;;;;;11.10;1.00;;;;;;2268543;61;922;-88
2023/12/10 08:43:04;350489.00;1.17;604.70;0.00;0.00;0.62;;;;;11.10;1.00;;;;;;2268415;61;2000;-85
2023/12/10 08:45:47;373293.00;1.24;643.90;0.00;0.00;0.62;;;;;10.80;1.00;;;;;;2268440;61;1084;-86
2023/12/10 08:48:15;653624.00;2.18;1126.91;54826.00;0.18;95.53;;;;;10.90;1.00;;;;;;2268224;61;1483;-86
2023/12/10 08:50:42;1618888.00;5.40;2868.89;183151.00;0.61;316.92;;;;;10.80;1.00;;;;;;2268504;61;1007;-87
2023/12/10 08:53:09;549376.00;1.83;946.88;90870.00;0.30;157.81;;;;;10.70;1.00;;;;;;2268544;61;1129;-85
2023/12/10 08:55:36;349092.00;1.16;602.30;0.00;0.00;0.62;;;;;11.00;1.00;;;;;;2268514;61;1800;-86
2023/12/10 08:58:03;526136.00;1.75;906.83;0.00;0.00;0.62;;;;;11.50;1.00;;;;;;2268382;61;1384;-85
2023/12/10 09:00:30;1334593.00;4.45;2335.56;42703.00;0.14;74.56;;;;;11.50;1.00;;;;;;2268426;61;944;-87
2023/12/10 09:03:00;1808753.00;6.03;3238.74;94393.00;0.31;163.89;;;;;11.40;1.00;;;;;;2268411;61;1919;-85
2023/12/10 09:05:30;757375.00;2.52;1306.88;118772.00;0.40;205.96;;;;;11.40;1.00;;;;;;2268467;61;1656;-86
2023/12/10 09:07:57;454475.00;1.51;783.48;117424.00;0.39;203.64;;;;;11.30;1.00;;;;;;2268440;61;1615;-86
2023/12/10 09:10:25;231265.00;0.77;399.73;0.00;0.00;0.62;;;;;11.10;1.00;;;;;;2268501;61;1569;-87
2023/12/10 09:12:51;294274.00;0.98;508.08;0.00;0.00;0.62;;;;;10.90;1.00;;;;;;2268345;61;1626;-86
2023/12/10 09:15:22;350241.00;1.17;604.28;16066.00;0.05;28.46;;;;;10.70;1.00;;;;;;2268415;61;1505;-87
2023/12/10 09:17:49;1270924.00;4.24;2218.99;135789.00;0.45;235.31;;;;;11.00;1.00;;;;;;2268465;61;1553;-88
2023/12/10 09:20:16;1652599.00;5.51;2933.69;112813.00;0.38;195.68;;;;;11.10;1.00;;;;;;2268402;61;1434;-87
2023/12/10 09:22:44;560892.00;1.87;966.74;94900.00;0.32;164.77;;;;;11.40;1.00;;;;;;2268389;61;1998;-89
2023/12/10 09:25:11;308016.00;1.03;531.70;0.00;0.00;0.62;;;;;11.40;1.00;;;;;;2268445;61;1039;-87
2023/12/10 09:27:44;145038.00;0.48;251.26;20284.00;0.07;35.76;;;;;11.60;1.00;;;;;;2268258;61;1678;-86
2023/12/10 09:30:11;131178.00;0.44;227.36;0.00;0.00;0.62;;;;;11.50;1.00;;;;;;2268334;61;1571;-85
2023/12/10 09:32:40;275882.00;0.92;476.46;47649.00;0.16;83.12;;;;;11.70;1.00;;;;;;2268319;61;1110;-85
2023/12/10 09:35:07;313384.00;1.04;540.93;0.00;0.00;0.62;;;;;11.70;1.00;;;;;;2268345;61;1054;-87
2023/12/10 09:37:37;1987916.00;6.63;3599.54;168265.00;0.56;291.28;;;;;11.60;1.00;;;;;;2268309;61;1317;-87
2023/12/10 09:40:06;531599.00;1.77;916.25;84792.00;0.28;147.31;;;;;11.50;1.00;;;;;;2268451;61;1105;-86
2023/12/10 09:42:33;221452.00;0.74;382.84;0.00;0.00;0.62;;;;;11.90;1.00;;;;;;2268271;61;2004;-85
2023/12/10 09:45:02;275788.00;0.92;476.30;0.00;0.00;0.62;;;;;12.00;1.00;;;;;;2268366;61;1104;-86
2023/12/10 09:47:30;224871.00;0.75;388.72;0.00;0.00;0.62;;;;;12.20;1.00;;;;;;2268165;61;1534;-87
2023/12/10 09:50:00;608863.00;2.03;1049.53;17092.00;0.06;30.23;;;;;12.10;1.00;;;;;;2268313;61;1157;-86
2023/12/10 09:52:27;528640.00;1.76;911.15;0.00;0.00;0.62;;;;;11.90;1.00;;;;;;2268334;61;1058;-85
2023/12/10 09:54:57;514744.00;1.72;887.21;26568.00;0.09;46.64;;;;;11.90;1.00;;;;;;2268179;61;1657;-86
2023/12/10 09:57:30;192085.00;0.64;332.30;0.00;0.00;0.62;;;;;11.90;1.00;;;;;;2268235;61;1570;-86